createdAt,value
2017-12-21T00:01:34.360Z,67.42
2017-12-21T00:04:02.717Z,67.25
2017-12-21T00:06:31.075Z,67.51
2017-12-21T00:08:59.435Z,66.71
2017-12-21T00:11:27.840Z,66.62
2017-12-21T00:13:56.212Z,67.28
2017-12-21T00:16:24.601Z,66.62
2017-12-21T00:18:52.975Z,66.38
2017-12-21T00:21:21.360Z,66.98
2017-12-21T00:23:49.721Z,66.83
2017-12-21T00:26:18.084Z,66.59
2017-12-21T00:28:46.432Z,66.68
2017-12-21T00:31:14.973Z,66.86
2017-12-21T00:33:43.351Z,66.84
2017-12-21T00:36:11.834Z,66.88
2017-12-21T00:38:40.197Z,66.97
2017-12-21T00:41:08.544Z,66.56
2017-12-21T00:43:37.379Z,66.47
2017-12-21T00:46:12.553Z,66.56
2017-12-21T00:48:41.320Z,66.64
2017-12-21T00:51:09.725Z,66.80
2017-12-21T00:53:38.734Z,66.58
2017-12-21T00:56:07.102Z,66.86
2017-12-21T00:58:35.587Z,66.85
2017-12-21T01:01:04.345Z,66.51
2017-12-21T01:03:32.695Z,67.19
2017-12-21T01:06:01.081Z,67.74
2017-12-21T01:08:29.439Z,67.26
2017-12-21T01:10:58.306Z,66.75
2017-12-21T01:13:27.122Z,67.53
2017-12-21T01:15:55.492Z,67.15
2017-12-21T01:18:23.902Z,67.31
2017-12-21T01:20:52.371Z,67.91
2017-12-21T01:23:20.764Z,67.57
2017-12-21T01:25:49.119Z,68.09
2017-12-21T01:28:17.484Z,68.31
2017-12-21T01:30:45.850Z,67.84
2017-12-21T01:33:14.213Z,68.10
2017-12-21T01:35:42.956Z,67.68
2017-12-21T01:38:11.332Z,67.58
2017-12-21T01:40:39.688Z,67.83
2017-12-21T01:43:10.037Z,67.32
2017-12-21T01:45:38.405Z,67.48
2017-12-21T01:48:06.770Z,68.02
2017-12-21T01:50:35.156Z,67.71
2017-12-21T01:53:03.565Z,68.07
2017-12-21T01:55:31.930Z,68.31
2017-12-21T01:58:01.101Z,68.03
2017-12-21T02:00:29.482Z,68.04
2017-12-21T02:02:57.829Z,68.04
2017-12-21T02:05:26.712Z,67.83
2017-12-21T02:07:55.077Z,67.77
2017-12-21T02:10:23.428Z,67.76
2017-12-21T02:12:51.767Z,67.50
2017-12-21T02:15:20.164Z,67.28
2017-12-21T02:17:48.511Z,67.06
2017-12-21T02:20:17.261Z,67.42
2017-12-21T02:22:45.737Z,67.54
2017-12-21T02:25:14.091Z,67.27
2017-12-21T02:27:42.440Z,67.41
2017-12-21T02:30:10.918Z,67.38
2017-12-21T02:32:39.668Z,67.66
2017-12-21T02:35:08.048Z,67.83
2017-12-21T02:37:36.495Z,67.97
2017-12-21T02:40:04.913Z,67.58
2017-12-21T02:42:33.272Z,67.68
2017-12-21T02:45:01.675Z,69.20
2017-12-21T02:47:30.035Z,68.63
2017-12-21T02:49:58.389Z,68.02
2017-12-21T02:52:26.800Z,67.65
2017-12-21T02:54:55.169Z,67.67
2017-12-21T02:57:23.644Z,67.66
2017-12-21T02:59:52.008Z,68.03
2017-12-21T03:02:20.370Z,67.89
2017-12-21T03:04:48.795Z,67.82
2017-12-21T03:07:17.248Z,67.97
2017-12-21T03:09:45.609Z,68.35
2017-12-21T03:12:13.952Z,68.50
2017-12-21T03:14:42.400Z,68.76
2017-12-21T03:17:10.788Z,69.29
2017-12-21T03:19:39.196Z,68.81
2017-12-21T03:22:07.752Z,68.60
2017-12-21T03:24:36.292Z,69.08
2017-12-21T03:27:04.721Z,69.77
2017-12-21T03:29:33.099Z,69.53
2017-12-21T03:32:01.473Z,69.48
2017-12-21T03:34:29.820Z,68.69
2017-12-21T03:36:58.229Z,68.61
2017-12-21T03:39:26.573Z,68.28
2017-12-21T03:41:54.921Z,68.71
2017-12-21T03:44:23.680Z,69.31
2017-12-21T03:46:52.045Z,68.93
2017-12-21T03:49:20.392Z,68.89
2017-12-21T03:51:48.780Z,68.80
2017-12-21T03:54:17.137Z,69.87
2017-12-21T03:56:45.875Z,68.67
2017-12-21T03:59:14.344Z,68.52
2017-12-21T04:01:42.694Z,69.00
2017-12-21T04:04:11.111Z,69.71
2017-12-21T04:06:39.592Z,70.41
2017-12-21T04:09:07.953Z,70.56
2017-12-21T04:11:36.310Z,69.92
2017-12-21T04:14:04.677Z,69.84
2017-12-21T04:16:33.491Z,68.91
2017-12-21T04:19:01.924Z,69.31
2017-12-21T04:21:30.268Z,69.07
2017-12-21T04:23:58.757Z,69.37
2017-12-21T04:26:27.108Z,69.83
2017-12-21T04:28:55.489Z,69.49
2017-12-21T04:31:23.849Z,69.62
2017-12-21T04:33:52.264Z,70.73
2017-12-21T04:36:20.644Z,70.50
2017-12-21T04:38:49.073Z,70.03
2017-12-21T04:41:17.893Z,70.37
2017-12-21T04:43:46.293Z,71.00
2017-12-21T04:46:14.691Z,70.82
2017-12-21T04:48:43.129Z,70.75
2017-12-21T04:51:11.541Z,70.31
2017-12-21T04:53:39.903Z,70.89
2017-12-21T04:56:08.256Z,72.26
2017-12-21T04:58:36.642Z,71.05
2017-12-21T05:01:04.999Z,70.39
2017-12-21T05:03:33.790Z,70.19
2017-12-21T05:06:02.566Z,70.99
2017-12-21T05:08:31.312Z,71.45
2017-12-21T05:10:59.669Z,70.80
2017-12-21T05:13:28.038Z,71.07
2017-12-21T05:15:56.384Z,70.18
2017-12-21T05:18:24.738Z,70.63
2017-12-21T05:20:53.159Z,70.24
2017-12-21T05:23:21.632Z,69.84
2017-12-21T05:25:50.392Z,69.87
2017-12-21T05:28:18.766Z,69.87
2017-12-21T05:30:47.116Z,70.02
2017-12-21T05:33:15.469Z,71.05
2017-12-21T05:35:43.844Z,70.69
2017-12-21T05:38:12.269Z,70.88
2017-12-21T05:40:40.778Z,70.56
2017-12-21T05:43:09.249Z,70.59
2017-12-21T05:45:37.596Z,70.88
2017-12-21T05:48:05.952Z,71.05
2017-12-21T05:50:34.373Z,70.90
2017-12-21T05:53:02.746Z,70.91
2017-12-21T05:55:31.111Z,70.75
2017-12-21T05:57:59.493Z,70.84
2017-12-21T06:00:28.494Z,70.36
2017-12-21T06:02:56.845Z,70.21
2017-12-21T06:05:25.215Z,70.61
2017-12-21T06:07:53.615Z,71.67
2017-12-21T06:10:21.993Z,71.67
2017-12-21T06:12:50.364Z,70.93
2017-12-21T06:15:18.749Z,71.21
2017-12-21T06:17:47.099Z,71.12
2017-12-21T06:20:15.497Z,71.38
2017-12-21T06:22:43.856Z,70.99
2017-12-21T06:25:12.674Z,70.29
2017-12-21T06:27:41.084Z,70.79
2017-12-21T06:30:09.444Z,70.23
2017-12-21T06:32:37.820Z,70.09
2017-12-21T06:35:06.509Z,70.97
2017-12-21T06:37:34.919Z,70.93
2017-12-21T06:40:03.380Z,69.87
2017-12-21T06:42:31.773Z,70.53
2017-12-21T06:45:00.245Z,70.15
2017-12-21T06:47:28.674Z,70.45
2017-12-21T06:49:57.047Z,69.83
2017-12-21T06:52:25.811Z,69.77
2017-12-21T06:54:54.268Z,69.77
2017-12-21T06:57:22.646Z,70.94
2017-12-21T06:59:51.044Z,70.41
2017-12-21T07:02:19.405Z,69.85
2017-12-21T07:04:47.779Z,70.01
2017-12-21T07:07:16.159Z,71.36
2017-12-21T07:09:44.538Z,71.01
2017-12-21T07:12:13.021Z,71.21
2017-12-21T07:14:41.372Z,71.37
2017-12-21T07:17:10.632Z,71.18
2017-12-21T07:19:39.408Z,70.87
2017-12-21T07:22:07.769Z,70.91
2017-12-21T07:24:36.149Z,71.21
2017-12-21T07:27:04.567Z,71.22
2017-12-21T07:29:33.513Z,71.90
2017-12-21T07:32:01.963Z,71.83
2017-12-21T07:34:30.327Z,72.39
2017-12-21T07:36:58.684Z,71.97
2017-12-21T07:39:27.427Z,71.71
2017-12-21T07:41:55.820Z,72.07
2017-12-21T07:44:24.614Z,72.87
2017-12-21T07:46:52.986Z,72.10
2017-12-21T07:49:21.465Z,72.65
2017-12-21T07:51:49.833Z,72.15
2017-12-21T07:54:18.193Z,73.08
2017-12-21T07:56:46.588Z,72.95
2017-12-21T07:59:14.958Z,73.61
2017-12-21T08:01:43.362Z,73.66
2017-12-21T08:04:11.732Z,73.42
2017-12-21T08:06:40.089Z,73.82
2017-12-21T08:09:08.441Z,73.48
2017-12-21T08:11:37.209Z,72.93
2017-12-21T08:14:05.565Z,72.76
2017-12-21T08:16:33.930Z,73.06
2017-12-21T08:19:02.305Z,73.55
2017-12-21T08:21:30.657Z,73.32
2017-12-21T08:23:59.068Z,73.37
2017-12-21T08:26:27.442Z,73.76
2017-12-21T08:28:55.800Z,72.22
2017-12-21T08:31:24.170Z,72.47
2017-12-21T08:33:52.549Z,72.27
2017-12-21T08:36:20.976Z,73.73
2017-12-21T08:38:49.418Z,74.00
2017-12-21T08:41:17.825Z,72.97
2017-12-21T08:43:46.196Z,73.21
2017-12-21T08:46:14.549Z,72.18
2017-12-21T08:48:42.933Z,71.80
2017-12-21T08:51:11.348Z,73.01
2017-12-21T08:53:39.704Z,73.16
2017-12-21T08:56:08.100Z,72.88
2017-12-21T08:58:36.581Z,71.99
2017-12-21T09:01:04.950Z,72.37
2017-12-21T09:03:33.370Z,72.50
2017-12-21T09:06:01.737Z,72.56
2017-12-21T09:08:30.209Z,72.27
2017-12-21T09:10:58.585Z,73.41
2017-12-21T09:13:26.938Z,73.13
2017-12-21T09:15:55.294Z,72.61
2017-12-21T09:18:23.675Z,72.44
2017-12-21T09:20:52.203Z,72.45
2017-12-21T09:23:20.568Z,73.03
2017-12-21T09:25:48.945Z,72.75
2017-12-21T09:28:17.329Z,72.39
2017-12-21T09:30:45.716Z,73.29
2017-12-21T09:33:14.180Z,72.31
2017-12-21T09:35:42.563Z,71.38
2017-12-21T09:38:10.931Z,70.54
2017-12-21T09:40:39.333Z,71.17
2017-12-21T09:43:07.814Z,70.81
2017-12-21T09:45:36.188Z,72.32
2017-12-21T09:48:05.392Z,71.33
2017-12-21T09:50:33.790Z,71.68
2017-12-21T09:53:02.150Z,71.57
2017-12-21T09:55:30.528Z,70.75
2017-12-21T09:57:58.918Z,70.49
2017-12-21T10:00:27.277Z,70.99
2017-12-21T10:02:55.656Z,70.75
2017-12-21T10:05:24.013Z,69.08
2017-12-21T10:07:52.368Z,69.59
2017-12-21T10:10:20.753Z,68.94
2017-12-21T10:12:49.113Z,69.34
2017-12-21T10:15:17.881Z,69.00
2017-12-21T10:17:46.347Z,69.63
2017-12-21T10:20:14.713Z,67.85
2017-12-21T10:22:43.107Z,68.04
2017-12-21T10:25:11.581Z,68.66
2017-12-21T10:27:39.938Z,69.11
2017-12-21T10:30:08.297Z,68.87
2017-12-21T10:32:36.708Z,69.77
2017-12-21T10:35:05.081Z,68.43
2017-12-21T10:37:33.543Z,68.63
2017-12-21T10:40:01.957Z,68.27
2017-12-21T10:42:30.328Z,67.58
2017-12-21T10:44:58.693Z,67.59
2017-12-21T10:47:27.085Z,67.04
2017-12-21T10:49:55.450Z,66.62
2017-12-21T10:52:23.809Z,65.64
2017-12-21T10:54:52.180Z,67.32
2017-12-21T10:57:20.613Z,67.35
2017-12-21T10:59:48.982Z,67.15
2017-12-21T11:02:17.461Z,66.11
2017-12-21T11:04:45.845Z,65.65
2017-12-21T11:07:14.219Z,66.65
2017-12-21T11:09:42.673Z,66.31
2017-12-21T11:12:11.081Z,65.45
2017-12-21T11:14:39.457Z,65.35
2017-12-21T11:17:07.942Z,65.96
2017-12-21T11:19:36.321Z,64.52
2017-12-21T11:22:04.713Z,64.81
2017-12-21T11:24:33.164Z,63.96
2017-12-21T11:27:01.533Z,64.56
2017-12-21T11:29:30.010Z,65.21
2017-12-21T11:31:58.388Z,64.16
2017-12-21T11:34:26.883Z,64.66
2017-12-21T11:36:55.245Z,64.68
2017-12-21T11:39:23.655Z,63.08
2017-12-21T11:41:52.036Z,64.72
2017-12-21T11:44:21.332Z,64.93
2017-12-21T11:46:49.774Z,65.75
2017-12-21T11:49:18.140Z,65.11
2017-12-21T11:51:46.896Z,65.60
2017-12-21T11:54:15.277Z,65.51
2017-12-21T11:56:43.650Z,66.42
2017-12-21T11:59:12.025Z,67.02
2017-12-21T12:01:40.949Z,66.72
2017-12-21T12:04:09.770Z,66.70
2017-12-21T12:06:38.173Z,66.06
2017-12-21T12:09:06.555Z,65.47
2017-12-21T12:11:35.009Z,66.30
2017-12-21T12:14:03.361Z,66.17
2017-12-21T12:16:32.216Z,65.49
2017-12-21T12:19:00.593Z,65.89
2017-12-21T12:21:28.969Z,66.05
2017-12-21T12:23:57.445Z,66.62
2017-12-21T12:26:25.830Z,66.27
2017-12-21T12:28:54.274Z,65.54
2017-12-21T12:31:22.662Z,64.75
2017-12-21T12:33:51.017Z,65.96
2017-12-21T12:36:19.520Z,65.61
2017-12-21T12:38:47.896Z,65.37
2017-12-21T12:41:16.270Z,66.37
2017-12-21T12:43:44.635Z,66.77
2017-12-21T12:46:13.023Z,66.31
2017-12-21T12:48:41.382Z,67.19
2017-12-21T12:51:10.145Z,67.55
2017-12-21T12:53:38.601Z,66.86
2017-12-21T12:56:06.981Z,66.89
2017-12-21T12:58:35.353Z,64.99
2017-12-21T13:01:03.734Z,65.84
2017-12-21T13:03:32.133Z,65.91
2017-12-21T13:06:00.605Z,65.16
2017-12-21T13:08:28.986Z,64.66
2017-12-21T13:10:57.353Z,65.23
2017-12-21T13:13:25.757Z,64.71
2017-12-21T13:15:54.221Z,64.01
2017-12-21T13:18:22.591Z,63.69
2017-12-21T13:20:51.076Z,63.58
2017-12-21T13:23:19.563Z,63.13
2017-12-21T13:25:47.927Z,63.95
2017-12-21T13:28:16.295Z,64.10
2017-12-21T13:30:44.670Z,63.84
2017-12-21T13:33:13.058Z,64.53
2017-12-21T13:35:41.477Z,64.20
2017-12-21T13:38:09.858Z,63.95
2017-12-21T13:40:38.225Z,64.30
2017-12-21T13:43:06.596Z,64.29
2017-12-21T13:45:35.074Z,65.86
2017-12-21T13:48:03.456Z,66.04
2017-12-21T13:50:31.825Z,65.14
2017-12-21T13:53:00.412Z,65.80
2017-12-21T13:55:28.772Z,64.98
2017-12-21T13:57:57.164Z,64.19
2017-12-21T14:00:25.625Z,64.39
2017-12-21T14:02:53.986Z,64.59
2017-12-21T14:05:22.408Z,63.59
2017-12-21T14:07:50.892Z,65.24
2017-12-21T14:10:19.923Z,64.74
2017-12-21T14:12:48.696Z,65.74
2017-12-21T14:15:17.083Z,64.36
2017-12-21T14:19:51.113Z,64.99
2017-12-21T14:22:19.888Z,64.58
2017-12-21T14:24:48.332Z,65.11
2017-12-21T14:27:16.741Z,65.07
2017-12-21T14:29:45.133Z,65.44
2017-12-21T14:32:13.930Z,65.45
2017-12-21T14:34:42.473Z,65.10
2017-12-21T14:37:11.056Z,64.53
2017-12-21T14:39:39.421Z,64.87
2017-12-21T14:42:07.785Z,64.63
2017-12-21T14:44:36.166Z,64.43
2017-12-21T14:47:04.523Z,64.70
2017-12-21T14:49:32.991Z,65.05
2017-12-21T14:52:01.492Z,65.08
2017-12-21T14:54:29.844Z,65.26
2017-12-21T14:56:58.592Z,66.22
2017-12-21T14:59:26.976Z,67.06
2017-12-21T15:01:55.325Z,67.22
2017-12-21T15:04:23.733Z,66.80
2017-12-21T15:06:52.105Z,66.68
2017-12-21T15:09:20.479Z,67.04
2017-12-21T15:11:48.865Z,66.27
2017-12-21T15:14:17.357Z,65.71
2017-12-21T15:16:45.744Z,65.30
2017-12-21T15:19:14.101Z,64.23
2017-12-21T15:21:42.482Z,64.05
2017-12-21T15:24:10.839Z,64.42
2017-12-21T15:26:39.232Z,64.69
2017-12-21T15:29:07.612Z,64.74
2017-12-21T15:31:35.973Z,64.89
2017-12-21T15:34:04.330Z,64.01
2017-12-21T15:36:33.113Z,63.63
2017-12-21T15:39:01.878Z,62.62
2017-12-21T15:41:30.328Z,62.52
2017-12-21T15:43:58.709Z,63.19
2017-12-21T15:46:27.189Z,62.71
2017-12-21T15:48:55.644Z,62.59
2017-12-21T15:51:24.028Z,63.29
2017-12-21T15:53:52.505Z,62.44
2017-12-21T15:56:20.863Z,62.09
2017-12-21T15:58:49.698Z,61.43
2017-12-21T16:01:18.081Z,62.16
2017-12-21T16:03:46.457Z,61.51
2017-12-21T16:06:14.836Z,62.41
2017-12-21T16:08:43.213Z,62.30
2017-12-21T16:11:11.609Z,63.03
2017-12-21T16:13:40.046Z,63.65
2017-12-21T16:16:08.401Z,63.27
2017-12-21T16:18:37.228Z,62.77
2017-12-21T16:21:05.618Z,63.30
2017-12-21T16:23:34.028Z,63.33
2017-12-21T16:26:02.384Z,63.22
2017-12-21T16:28:30.752Z,63.88
2017-12-21T16:30:59.134Z,64.17
2017-12-21T16:33:27.518Z,64.36
2017-12-21T16:35:55.890Z,63.24
2017-12-21T16:38:24.249Z,63.93
2017-12-21T16:40:52.599Z,63.56
2017-12-21T16:43:21.362Z,63.05
2017-12-21T16:45:49.817Z,62.01
2017-12-21T16:48:18.211Z,62.79
2017-12-21T16:50:46.728Z,63.39
2017-12-21T16:53:15.053Z,63.55
2017-12-21T16:55:43.400Z,64.86
2017-12-21T16:58:11.793Z,64.59
2017-12-21T17:00:40.146Z,63.02
2017-12-21T17:03:09.781Z,63.58
2017-12-21T17:05:38.177Z,62.50
2017-12-21T17:08:06.568Z,62.29
2017-12-21T17:10:34.924Z,61.45
2017-12-21T17:13:03.321Z,61.79
2017-12-21T17:15:31.701Z,61.53
2017-12-21T17:18:00.746Z,61.71
2017-12-21T17:20:29.114Z,61.86
2017-12-21T17:22:57.957Z,60.62
2017-12-21T17:25:26.322Z,61.26
2017-12-21T17:27:54.728Z,60.57
2017-12-21T17:30:23.082Z,62.00
2017-12-21T17:32:51.524Z,60.69
2017-12-21T17:35:20.233Z,60.05
2017-12-21T17:37:48.654Z,60.37
2017-12-21T17:40:17.022Z,61.59
2017-12-21T17:42:45.492Z,61.11
2017-12-21T17:45:13.878Z,61.43
2017-12-21T17:47:42.245Z,62.19
2017-12-21T17:50:10.629Z,61.31
2017-12-21T17:52:39.018Z,61.50
2017-12-21T17:55:07.429Z,61.42
2017-12-21T17:57:36.209Z,62.63
2017-12-21T18:00:04.561Z,62.23
2017-12-21T18:02:32.919Z,62.25
2017-12-21T18:05:01.331Z,62.05
2017-12-21T18:07:29.665Z,62.81
2017-12-21T18:09:58.026Z,61.68
2017-12-21T18:12:26.807Z,61.91
2017-12-21T18:14:55.234Z,62.02
2017-12-21T18:17:23.584Z,61.45
2017-12-21T18:19:52.008Z,60.83
2017-12-21T18:22:20.385Z,60.19
2017-12-21T18:24:48.789Z,60.15
2017-12-21T18:27:17.594Z,60.48
2017-12-21T18:29:46.341Z,60.72
2017-12-21T18:32:14.741Z,60.10
2017-12-21T18:34:43.117Z,60.31
2017-12-21T18:37:11.618Z,59.87
2017-12-21T18:39:40.468Z,58.55
2017-12-21T18:42:08.853Z,58.66
2017-12-21T18:44:37.208Z,59.57
2017-12-21T18:47:05.702Z,59.66
2017-12-21T18:49:34.199Z,59.56
2017-12-21T18:52:02.548Z,60.75
2017-12-21T18:54:32.726Z,60.70
2017-12-21T18:57:01.567Z,60.43
2017-12-21T18:59:29.921Z,61.07
2017-12-21T19:01:58.325Z,60.61
2017-12-21T19:04:26.698Z,60.68
2017-12-21T19:06:55.081Z,61.26
2017-12-21T19:09:23.442Z,61.18
2017-12-21T19:11:51.841Z,60.70
2017-12-21T19:14:20.194Z,60.38
2017-12-21T19:16:48.548Z,60.94
2017-12-21T19:19:17.322Z,61.19
2017-12-21T19:21:45.697Z,60.83
2017-12-21T19:24:14.153Z,60.82
2017-12-21T19:26:42.532Z,61.70
2017-12-21T19:29:10.884Z,61.44
2017-12-21T19:31:39.301Z,61.89
2017-12-21T19:34:07.679Z,62.56
2017-12-21T19:36:36.029Z,62.52
2017-12-21T19:39:04.381Z,62.14
2017-12-21T19:41:32.768Z,62.09
2017-12-21T19:44:01.151Z,62.46
2017-12-21T19:46:29.507Z,62.31
2017-12-21T19:48:58.298Z,61.78
2017-12-21T19:51:27.128Z,62.19
2017-12-21T19:53:55.481Z,61.82
2017-12-21T19:56:23.849Z,62.61
2017-12-21T19:58:52.205Z,63.16
2017-12-21T20:01:20.962Z,61.76
2017-12-21T20:03:49.356Z,60.96
2017-12-21T20:06:17.707Z,60.93
2017-12-21T20:08:46.089Z,61.00
2017-12-21T20:11:14.592Z,61.10
2017-12-21T20:13:42.961Z,61.61
2017-12-21T20:16:11.342Z,61.03
2017-12-21T20:18:39.721Z,61.92
2017-12-21T20:21:08.072Z,61.44
2017-12-21T20:23:36.547Z,61.76
2017-12-21T20:26:04.919Z,61.77
2017-12-21T20:28:33.330Z,61.94
2017-12-21T20:31:01.716Z,62.08
2017-12-21T20:33:30.120Z,62.04
2017-12-21T20:35:58.492Z,62.57
2017-12-21T20:38:26.957Z,62.47
2017-12-21T20:40:55.354Z,62.81
2017-12-21T20:43:23.721Z,62.54
2017-12-21T20:45:52.186Z,62.16
2017-12-21T20:48:20.663Z,62.05
2017-12-21T20:50:49.018Z,61.34
2017-12-21T20:53:17.384Z,61.59
2017-12-21T20:55:45.791Z,62.42
2017-12-21T20:58:14.153Z,61.99
2017-12-21T21:00:42.557Z,61.28
2017-12-21T21:03:11.041Z,60.62
2017-12-21T21:05:39.397Z,60.41
2017-12-21T21:08:07.801Z,60.94
2017-12-21T21:10:36.187Z,60.28
2017-12-21T21:13:04.556Z,61.60
2017-12-21T21:15:32.964Z,61.96
2017-12-21T21:18:01.975Z,62.06
2017-12-21T21:20:30.728Z,61.60
2017-12-21T21:22:59.099Z,61.79
2017-12-21T21:25:27.475Z,62.34
2017-12-21T21:27:55.877Z,62.36
2017-12-21T21:30:24.392Z,61.86
2017-12-21T21:32:52.760Z,62.15
2017-12-21T21:35:21.617Z,62.20
2017-12-21T21:37:49.985Z,60.81
2017-12-21T21:40:18.360Z,60.51
2017-12-21T21:42:46.717Z,61.81
2017-12-21T21:45:15.081Z,62.45
2017-12-21T21:47:43.455Z,62.22
2017-12-21T21:50:11.805Z,62.61
2017-12-21T21:52:40.164Z,61.75
2017-12-21T21:55:08.545Z,61.85
2017-12-21T21:57:36.892Z,62.92
2017-12-21T22:00:05.239Z,62.70
2017-12-21T22:02:33.628Z,62.55
2017-12-21T22:05:01.976Z,63.96
2017-12-21T22:07:30.439Z,63.57
2017-12-21T22:09:58.818Z,62.68
2017-12-21T22:12:27.284Z,62.63
2017-12-21T22:14:55.639Z,62.72
2017-12-21T22:17:24.018Z,62.91
2017-12-21T22:19:52.373Z,62.53
2017-12-21T22:22:20.829Z,62.74
2017-12-21T22:24:49.205Z,62.95
2017-12-21T22:27:17.560Z,62.92
2017-12-21T22:29:45.940Z,62.10
2017-12-21T22:32:14.326Z,61.94
2017-12-21T22:34:42.698Z,62.43
2017-12-21T22:37:11.086Z,62.14
2017-12-21T22:39:39.627Z,62.29
2017-12-21T22:42:07.980Z,63.21
2017-12-21T22:44:36.765Z,63.43
2017-12-21T22:47:05.547Z,62.81
2017-12-21T22:49:34.318Z,62.44
2017-12-21T22:52:02.780Z,62.23
2017-12-21T22:54:31.256Z,61.77
2017-12-21T22:56:59.640Z,61.79
2017-12-21T22:59:28.006Z,62.37
2017-12-21T23:01:56.389Z,62.96
2017-12-21T23:04:24.745Z,61.43
2017-12-21T23:06:53.113Z,61.18
2017-12-21T23:09:21.488Z,61.12
2017-12-21T23:11:49.850Z,61.99
2017-12-21T23:14:18.721Z,62.52
2017-12-21T23:16:47.186Z,61.86
2017-12-21T23:19:15.540Z,62.04
2017-12-21T23:21:43.908Z,62.25
2017-12-21T23:24:12.284Z,63.38
2017-12-21T23:26:40.645Z,63.91
2017-12-21T23:29:09.495Z,63.49
2017-12-21T23:31:37.969Z,63.41
2017-12-21T23:34:06.350Z,63.23
2017-12-21T23:36:34.754Z,64.22
2017-12-21T23:39:03.140Z,63.13
2017-12-21T23:41:31.980Z,62.72
2017-12-21T23:44:00.382Z,62.53
2017-12-21T23:46:28.845Z,62.71
2017-12-21T23:48:57.235Z,62.33
2017-12-21T23:51:25.597Z,62.78
2017-12-21T23:53:54.431Z,62.94
2017-12-21T23:56:22.873Z,64.36
2017-12-21T23:58:51.240Z,64.46
